Time;durP1;ratioP1;P1;durP2;ratioP2;P2;SDS_P1;SDS_P2;PMS_P1;PMS_P2;Temp;Humidity;BMP_temperature;BMP_pressure;BME280_temperature;BME280_humidity;BME280_pressure;Samples;Min_cycle;Max_cycle;Signal;HPM_P1;HPM_P2
2022/09/20 00:02:23;;;;;;;0.90;0.90;;;;;;;;;;4943573;28;28059;-58
2022/09/20 00:04:49;;;;;;;0.80;0.80;;;;;;;;;;4948420;28;20213;-58
2022/09/20 00:07:15;;;;;;;0.90;0.90;;;;;;;;;;4930554;28;20217;-58
2022/09/20 00:09:41;;;;;;;0.87;0.87;;;;;;;;;;4931290;28;20223;-58
2022/09/20 00:12:07;;;;;;;0.80;0.80;;;;;;;;;;4936311;28;20373;-58
2022/09/20 00:14:33;;;;;;;0.90;0.90;;;;;;;;;;4935382;28;21266;-58
2022/09/20 00:16:59;;;;;;;0.73;0.73;;;;;;;;;;4918360;28;20257;-58
2022/09/20 00:19:25;;;;;;;0.97;0.97;;;;;;;;;;4918829;28;20687;-58
2022/09/20 00:21:51;;;;;;;0.70;0.70;;;;;;;;;;4942386;28;20314;-58
2022/09/20 00:24:18;;;;;;;0.70;0.70;;;;;;;;;;4945866;28;20218;-58
2022/09/20 00:26:43;;;;;;;0.80;0.80;;;;;;;;;;4947144;28;20359;-59
2022/09/20 00:29:11;;;;;;;0.90;0.90;;;;;;;;;;4946853;28;20231;-59
2022/09/20 00:31:39;;;;;;;0.70;0.70;;;;;;;;;;4925915;28;20697;-59
2022/09/20 00:36:49;;;;;;;0.80;0.80;;;;;;;;;;4934975;28;20317;-58
2022/09/20 00:39:15;;;;;;;0.87;0.87;;;;;;;;;;4937722;28;20230;-58
2022/09/20 00:41:41;;;;;;;1.00;1.00;;;;;;;;;;4935944;28;20230;-58
2022/09/20 00:44:26;;;;;;;0.90;0.90;;;;;;;;;;4930123;28;20601;-59
2022/09/20 00:46:52;;;;;;;0.90;0.90;;;;;;;;;;4936378;28;20249;-59
2022/09/20 00:49:21;;;;;;;0.70;0.70;;;;;;;;;;4944371;28;20727;-58
2022/09/20 00:51:48;;;;;;;0.90;0.90;;;;;;;;;;4936634;28;20234;-58
2022/09/20 00:54:15;;;;;;;0.70;0.70;;;;;;;;;;4952978;28;20253;-58
2022/09/20 00:56:42;;;;;;;0.87;0.87;;;;;;;;;;4934928;28;20338;-58
2022/09/20 00:59:14;;;;;;;0.80;0.80;;;;;;;;;;4913372;28;20552;-58
2022/09/20 01:01:40;;;;;;;0.80;0.80;;;;;;;;;;4934001;28;20222;-58
2022/09/20 01:04:06;;;;;;;0.80;0.80;;;;;;;;;;4922533;28;20231;-58
2022/09/20 01:06:32;;;;;;;0.80;0.80;;;;;;;;;;4923858;28;20335;-58
2022/09/20 01:09:00;;;;;;;1.00;1.00;;;;;;;;;;4919670;28;20238;-58
2022/09/20 01:11:26;;;;;;;0.83;0.83;;;;;;;;;;4922607;28;20917;-58
2022/09/20 01:13:52;;;;;;;0.90;0.90;;;;;;;;;;4932369;28;20284;-59
2022/09/20 01:16:18;;;;;;;0.93;0.93;;;;;;;;;;4922297;28;22340;-58
2022/09/20 01:18:44;;;;;;;0.90;0.90;;;;;;;;;;4934358;28;20361;-58
2022/09/20 01:21:10;;;;;;;1.00;1.00;;;;;;;;;;4942683;28;20227;-58
2022/09/20 01:23:54;;;;;;;0.80;0.80;;;;;;;;;;4932593;28;20227;-58
2022/09/20 01:26:39;;;;;;;1.00;1.00;;;;;;;;;;4938788;28;20328;-58
2022/09/20 01:29:07;;;;;;;1.00;1.00;;;;;;;;;;4918607;28;20227;-58
2022/09/20 01:31:34;;;;;;;0.60;0.60;;;;;;;;;;4921718;28;20235;-58
2022/09/20 01:34:06;;;;;;;0.73;0.73;;;;;;;;;;4902804;28;20233;-57
2022/09/20 01:36:43;;;;;;;0.73;0.73;;;;;;;;;;4930430;28;20321;-58
2022/09/20 01:39:18;;;;;;;0.80;0.80;;;;;;;;;;4937562;28;20242;-58
2022/09/20 01:41:46;;;;;;;0.80;0.80;;;;;;;;;;4936212;28;20697;-58
2022/09/20 01:44:13;;;;;;;0.90;0.90;;;;;;;;;;4941832;28;20597;-58
2022/09/20 01:46:39;;;;;;;0.90;0.90;;;;;;;;;;4939363;28;20650;-58
2022/09/20 01:49:28;;;;;;;0.80;0.80;;;;;;;;;;4940014;28;21051;-58
2022/09/20 01:51:59;;;;;;;0.90;0.90;;;;;;;;;;4946242;28;20234;-58
2022/09/20 01:54:44;;;;;;;1.00;1.00;;;;;;;;;;4945551;28;20230;-59
2022/09/20 01:57:39;;;;;;;0.83;0.83;;;;;;;;;;4937084;28;20242;-58
2022/09/20 02:00:16;;;;;;;1.10;1.10;;;;;;;;;;4944980;28;20246;-58
2022/09/20 02:03:01;;;;;;;0.70;0.70;;;;;;;;;;4939672;28;20235;-58
2022/09/20 02:05:39;;;;;;;0.90;0.90;;;;;;;;;;4948075;28;20234;-58
2022/09/20 02:08:05;;;;;;;0.70;0.70;;;;;;;;;;4946259;28;20230;-58
2022/09/20 02:10:31;;;;;;;0.80;0.80;;;;;;;;;;4927401;28;20296;-58
2022/09/20 02:13:16;;;;;;;0.70;0.70;;;;;;;;;;4933899;28;20231;-59
2022/09/20 02:15:52;;;;;;;0.80;0.80;;;;;;;;;;4934236;28;20219;-58
2022/09/20 02:18:30;;;;;;;0.90;0.90;;;;;;;;;;4948864;28;20292;-58
2022/09/20 02:20:58;;;;;;;0.80;0.80;;;;;;;;;;4947078;28;20682;-58
2022/09/20 02:23:42;;;;;;;0.90;0.90;;;;;;;;;;4922879;28;20725;-58
2022/09/20 02:26:09;;;;;;;1.10;1.10;;;;;;;;;;4937352;28;20305;-58
2022/09/20 02:28:35;;;;;;;0.93;0.93;;;;;;;;;;4935582;28;20222;-58
2022/09/20 02:31:15;;;;;;;0.70;0.70;;;;;;;;;;4948431;28;20237;-58
2022/09/20 02:33:45;;;;;;;0.90;0.90;;;;;;;;;;4943466;28;20273;-58
2022/09/20 02:36:17;;;;;;;0.90;0.90;;;;;;;;;;4931145;28;20231;-58
2022/09/20 02:38:46;;;;;;;0.90;0.90;;;;;;;;;;4945943;28;20665;-59
2022/09/20 02:41:18;;;;;;;1.03;1.03;;;;;;;;;;4937000;28;20226;-58
2022/09/20 02:43:50;;;;;;;0.93;0.93;;;;;;;;;;4938141;28;20234;-58
2022/09/20 02:46:16;;;;;;;0.70;0.70;;;;;;;;;;4944820;28;20231;-58
2022/09/20 02:48:51;;;;;;;0.90;0.90;;;;;;;;;;4946330;28;20268;-58
2022/09/20 02:51:19;;;;;;;0.90;0.90;;;;;;;;;;4938225;28;23305;-59
2022/09/20 02:53:48;;;;;;;0.80;0.80;;;;;;;;;;4945489;28;20272;-58
2022/09/20 02:56:19;;;;;;;1.00;1.00;;;;;;;;;;4923444;28;20251;-58
2022/09/20 02:59:17;;;;;;;0.77;0.77;;;;;;;;;;4943057;28;21184;-58
2022/09/20 03:01:46;;;;;;;0.80;0.80;;;;;;;;;;4921613;28;20252;-58
2022/09/20 03:04:18;;;;;;;0.90;0.90;;;;;;;;;;4933046;28;20319;-58
2022/09/20 03:07:00;;;;;;;0.80;0.80;;;;;;;;;;4938725;28;20247;-58
2022/09/20 03:09:31;;;;;;;0.80;0.80;;;;;;;;;;4941300;28;20651;-58
2022/09/20 03:12:13;;;;;;;0.80;0.80;;;;;;;;;;4921105;28;20284;-58
2022/09/20 03:15:00;;;;;;;0.80;0.80;;;;;;;;;;4938407;28;20285;-58
2022/09/20 03:17:32;;;;;;;0.90;0.90;;;;;;;;;;4932853;28;20358;-58
2022/09/20 03:20:16;;;;;;;0.97;0.97;;;;;;;;;;4936640;28;20227;-58
2022/09/20 03:22:48;;;;;;;0.90;0.90;;;;;;;;;;4943674;28;20689;-58
2022/09/20 03:25:20;;;;;;;0.80;0.80;;;;;;;;;;4918159;28;20220;-58
2022/09/20 03:27:49;;;;;;;0.83;0.83;;;;;;;;;;4944095;28;20334;-58
2022/09/20 03:30:22;;;;;;;0.80;0.80;;;;;;;;;;4930308;28;20265;-58
2022/09/20 03:33:01;;;;;;;0.90;0.90;;;;;;;;;;4931920;28;20227;-58
2022/09/20 03:35:45;;;;;;;0.80;0.80;;;;;;;;;;4936525;28;20239;-58
2022/09/20 03:38:34;;;;;;;0.70;0.70;;;;;;;;;;4911296;28;20229;-59
2022/09/20 03:41:19;;;;;;;0.97;0.97;;;;;;;;;;4930095;28;20233;-58
2022/09/20 03:43:51;;;;;;;1.00;1.00;;;;;;;;;;4947327;28;20232;-58
2022/09/20 03:46:27;;;;;;;0.80;0.80;;;;;;;;;;4939826;28;20593;-59
2022/09/20 03:48:55;;;;;;;0.90;0.90;;;;;;;;;;4939550;28;20598;-58
2022/09/20 03:51:22;;;;;;;1.00;1.00;;;;;;;;;;4941012;28;20235;-59
2022/09/20 03:53:52;;;;;;;0.90;0.90;;;;;;;;;;4942596;28;21348;-58
2022/09/20 03:56:18;;;;;;;0.90;0.90;;;;;;;;;;4942998;28;20785;-58
2022/09/20 03:59:02;;;;;;;0.80;0.80;;;;;;;;;;4949234;28;20227;-58
2022/09/20 04:01:38;;;;;;;0.80;0.80;;;;;;;;;;4939196;28;20306;-58
2022/09/20 04:04:04;;;;;;;0.70;0.70;;;;;;;;;;4952065;28;20229;-58
2022/09/20 04:06:33;;;;;;;0.90;0.90;;;;;;;;;;4937555;28;20223;-58
2022/09/20 04:09:11;;;;;;;0.87;0.87;;;;;;;;;;4961041;28;20232;-59
2022/09/20 04:11:41;;;;;;;0.80;0.80;;;;;;;;;;4935682;28;20231;-58
2022/09/20 04:14:19;;;;;;;0.87;0.87;;;;;;;;;;4906420;28;20924;-58
2022/09/20 04:16:48;;;;;;;0.90;0.90;;;;;;;;;;4924285;28;20222;-58
2022/09/20 04:19:34;;;;;;;0.73;0.73;;;;;;;;;;4924328;28;20264;-58
2022/09/20 04:22:00;;;;;;;0.80;0.80;;;;;;;;;;4927015;28;20237;-58
2022/09/20 04:24:30;;;;;;;0.70;0.70;;;;;;;;;;4925972;28;20342;-58
2022/09/20 04:26:58;;;;;;;0.70;0.70;;;;;;;;;;4937098;28;20235;-58
2022/09/20 04:29:41;;;;;;;0.70;0.70;;;;;;;;;;4898761;28;20304;-58
2022/09/20 04:32:15;;;;;;;0.70;0.70;;;;;;;;;;4924008;28;20236;-58
2022/09/20 04:37:34;;;;;;;0.90;0.90;;;;;;;;;;4909303;28;20306;-58
2022/09/20 04:40:15;;;;;;;0.70;0.70;;;;;;;;;;4922156;28;20336;-58
2022/09/20 04:43:01;;;;;;;0.70;0.70;;;;;;;;;;4893228;28;20230;-58
2022/09/20 04:45:50;;;;;;;0.90;0.90;;;;;;;;;;4888752;28;20598;-59
2022/09/20 04:48:19;;;;;;;0.80;0.80;;;;;;;;;;4903403;28;20318;-58
2022/09/20 04:50:51;;;;;;;0.80;0.80;;;;;;;;;;4903401;28;20233;-58
2022/09/20 04:53:35;;;;;;;0.70;0.70;;;;;;;;;;4929377;28;22870;-58
2022/09/20 04:56:21;;;;;;;0.90;0.90;;;;;;;;;;4899137;28;20872;-58
2022/09/20 04:59:00;;;;;;;0.90;0.90;;;;;;;;;;4922484;28;20233;-59
2022/09/20 05:01:32;;;;;;;1.07;1.07;;;;;;;;;;4917005;28;20766;-58
2022/09/20 05:04:07;;;;;;;0.70;0.70;;;;;;;;;;4889587;28;20231;-58
2022/09/20 05:06:43;;;;;;;1.10;1.10;;;;;;;;;;4881404;28;21556;-58
2022/09/20 05:09:12;;;;;;;0.93;0.93;;;;;;;;;;4919636;28;20609;-58
2022/09/20 05:11:40;;;;;;;1.17;1.17;;;;;;;;;;4913704;28;20250;-58
2022/09/20 05:14:24;;;;;;;0.80;0.80;;;;;;;;;;4926033;28;20628;-56
2022/09/20 05:16:54;;;;;;;0.70;0.70;;;;;;;;;;4874229;28;20859;-57
2022/09/20 05:19:35;;;;;;;0.80;0.80;;;;;;;;;;4872560;28;21004;-57
2022/09/20 05:22:05;;;;;;;0.80;0.80;;;;;;;;;;4895743;28;20867;-55
2022/09/20 05:24:31;;;;;;;0.80;0.80;;;;;;;;;;4905803;28;20317;-57
2022/09/20 05:27:27;;;;;;;0.73;0.73;;;;;;;;;;4903958;28;20233;-58
2022/09/20 05:30:02;;;;;;;0.90;0.90;;;;;;;;;;4866626;28;20236;-58
2022/09/20 05:32:45;;;;;;;0.80;0.80;;;;;;;;;;4916185;28;21557;-57
2022/09/20 05:35:23;;;;;;;0.83;0.83;;;;;;;;;;4931789;28;20300;-57
2022/09/20 05:37:50;;;;;;;0.90;0.90;;;;;;;;;;4914380;28;20811;-57
2022/09/20 05:40:28;;;;;;;0.80;0.80;;;;;;;;;;4897633;28;20219;-58
2022/09/20 05:43:14;;;;;;;0.97;0.97;;;;;;;;;;4927857;28;20230;-58
2022/09/20 05:45:40;;;;;;;0.80;0.80;;;;;;;;;;4898514;28;20678;-58
2022/09/20 05:48:25;;;;;;;0.80;0.80;;;;;;;;;;4914999;28;20710;-57
2022/09/20 05:51:00;;;;;;;0.90;0.90;;;;;;;;;;4919768;28;20226;-58
2022/09/20 05:53:46;;;;;;;0.80;0.80;;;;;;;;;;4927264;28;20234;-58
2022/09/20 05:56:32;;;;;;;1.00;1.00;;;;;;;;;;4912348;28;20638;-57
2022/09/20 05:59:18;;;;;;;0.90;0.90;;;;;;;;;;4894113;28;20242;-57
2022/09/20 06:02:04;;;;;;;0.80;0.80;;;;;;;;;;4943197;28;20222;-57
2022/09/20 06:04:33;;;;;;;0.90;0.90;;;;;;;;;;4920616;28;20754;-57
2022/09/20 06:07:04;;;;;;;0.70;0.70;;;;;;;;;;4930792;28;20234;-57
2022/09/20 06:09:34;;;;;;;0.70;0.70;;;;;;;;;;4915259;28;20256;-58
2022/09/20 06:12:01;;;;;;;0.80;0.80;;;;;;;;;;4896767;28;20250;-58
2022/09/20 06:14:42;;;;;;;0.80;0.80;;;;;;;;;;4924001;28;20742;-57
2022/09/20 06:17:25;;;;;;;0.87;0.87;;;;;;;;;;4924528;28;20710;-58
2022/09/20 06:19:54;;;;;;;0.90;0.90;;;;;;;;;;4915919;28;20862;-57
2022/09/20 06:22:26;;;;;;;0.70;0.70;;;;;;;;;;4909900;28;20224;-57
2022/09/20 06:25:22;;;;;;;0.77;0.77;;;;;;;;;;4897119;28;20733;-58
2022/09/20 06:27:48;;;;;;;0.90;0.90;;;;;;;;;;4914655;28;20881;-57
2022/09/20 06:30:18;;;;;;;0.70;0.70;;;;;;;;;;4913014;28;20239;-58
2022/09/20 06:33:00;;;;;;;1.00;1.00;;;;;;;;;;4905799;28;20884;-58
2022/09/20 06:35:28;;;;;;;0.70;0.70;;;;;;;;;;4923210;28;20238;-58
2022/09/20 06:43:30;;;;;;;0.70;0.70;;;;;;;;;;4920181;28;20269;-57
2022/09/20 06:45:56;;;;;;;0.83;0.83;;;;;;;;;;4919111;28;20688;-58
2022/09/20 06:48:24;;;;;;;0.90;0.90;;;;;;;;;;4913445;28;20289;-58
2022/09/20 06:50:51;;;;;;;0.70;0.70;;;;;;;;;;4915966;28;20238;-58
2022/09/20 06:53:23;;;;;;;0.90;0.90;;;;;;;;;;4918829;28;20222;-58
2022/09/20 06:55:50;;;;;;;0.80;0.80;;;;;;;;;;4918768;28;20233;-58
2022/09/20 06:58:16;;;;;;;0.80;0.80;;;;;;;;;;4920331;28;20794;-58
2022/09/20 07:00:41;;;;;;;0.80;0.80;;;;;;;;;;4929211;28;20473;-57
2022/09/20 07:03:08;;;;;;;0.90;0.90;;;;;;;;;;4914513;28;20234;-58
2022/09/20 07:05:35;;;;;;;0.70;0.70;;;;;;;;;;4917484;28;20272;-58
2022/09/20 07:08:01;;;;;;;0.80;0.80;;;;;;;;;;4922973;28;20225;-58
2022/09/20 07:10:27;;;;;;;0.93;0.93;;;;;;;;;;4921562;28;20211;-58
2022/09/20 07:12:59;;;;;;;1.10;1.10;;;;;;;;;;4918870;28;20377;-57
2022/09/20 07:15:28;;;;;;;1.10;1.10;;;;;;;;;;4927205;28;20233;-58
2022/09/20 07:17:54;;;;;;;0.70;0.70;;;;;;;;;;4922016;28;20230;-57
2022/09/20 07:20:20;;;;;;;0.90;0.90;;;;;;;;;;4917714;28;20349;-58
2022/09/20 07:22:47;;;;;;;0.90;0.90;;;;;;;;;;4917791;28;20223;-57
2022/09/20 07:25:13;;;;;;;0.80;0.80;;;;;;;;;;4919165;28;20567;-57
2022/09/20 07:27:39;;;;;;;1.10;1.10;;;;;;;;;;4916482;28;20247;-57
2022/09/20 07:30:05;;;;;;;0.90;0.90;;;;;;;;;;4954270;28;20308;-57
2022/09/20 07:32:31;;;;;;;1.00;1.00;;;;;;;;;;4955577;28;20230;-58
2022/09/20 07:34:58;;;;;;;0.90;0.90;;;;;;;;;;4956109;28;20233;-58
2022/09/20 07:37:23;;;;;;;0.90;0.90;;;;;;;;;;4963242;28;20317;-58
2022/09/20 07:39:49;;;;;;;0.80;0.80;;;;;;;;;;4959583;28;20221;-57
2022/09/20 07:42:15;;;;;;;1.00;1.00;;;;;;;;;;4963153;28;20333;-58
2022/09/20 07:44:42;;;;;;;1.00;1.00;;;;;;;;;;4968557;28;20226;-57
2022/09/20 07:47:09;;;;;;;0.90;0.90;;;;;;;;;;4965839;28;20262;-59
2022/09/20 07:49:35;;;;;;;0.90;0.90;;;;;;;;;;4959379;28;20238;-57
2022/09/20 07:52:01;;;;;;;0.80;0.80;;;;;;;;;;4957650;28;20670;-58
2022/09/20 07:54:27;;;;;;;1.10;1.10;;;;;;;;;;4961056;28;20795;-58
2022/09/20 07:56:53;;;;;;;0.90;0.90;;;;;;;;;;4955511;28;20386;-58
2022/09/20 07:59:19;;;;;;;1.00;1.00;;;;;;;;;;4958330;28;20227;-58
2022/09/20 08:01:45;;;;;;;0.90;0.90;;;;;;;;;;4961196;28;20254;-57
2022/09/20 08:04:12;;;;;;;1.10;1.10;;;;;;;;;;4957168;28;20230;-57
2022/09/20 08:06:38;;;;;;;1.10;1.10;;;;;;;;;;4959644;28;20222;-57
2022/09/20 08:09:05;;;;;;;1.53;1.53;;;;;;;;;;4967809;28;20269;-58
2022/09/20 08:11:31;;;;;;;1.33;1.33;;;;;;;;;;4966818;28;20736;-57
2022/09/20 08:13:57;;;;;;;1.50;1.50;;;;;;;;;;4952767;28;20237;-58
2022/09/20 08:16:23;;;;;;;1.50;1.50;;;;;;;;;;4961158;28;20220;-57
2022/09/20 08:18:56;;;;;;;1.50;1.50;;;;;;;;;;4961794;28;20964;-58
2022/09/20 08:21:21;;;;;;;1.57;1.57;;;;;;;;;;4959118;28;20373;-58
2022/09/20 08:23:47;;;;;;;1.40;1.40;;;;;;;;;;4959942;28;20231;-58
2022/09/20 08:26:15;;;;;;;1.33;1.33;;;;;;;;;;4970542;28;20238;-58
2022/09/20 08:28:43;;;;;;;1.30;1.30;;;;;;;;;;4958704;28;20298;-58
2022/09/20 08:31:10;;;;;;;1.40;1.40;;;;;;;;;;4955978;28;20245;-58
2022/09/20 08:33:36;;;;;;;1.40;1.40;;;;;;;;;;4958448;28;20314;-58
2022/09/20 08:36:03;;;;;;;1.40;1.40;;;;;;;;;;4959853;28;20682;-57
2022/09/20 08:38:29;;;;;;;1.40;1.40;;;;;;;;;;4959411;28;20830;-58
2022/09/20 08:40:57;;;;;;;1.30;1.30;;;;;;;;;;4924063;28;20291;-58
2022/09/20 08:43:22;;;;;;;1.30;1.30;;;;;;;;;;4946007;28;20229;-58
2022/09/20 08:45:48;;;;;;;1.40;1.40;;;;;;;;;;4946500;28;20745;-58
2022/09/20 08:48:15;;;;;;;1.40;1.40;;;;;;;;;;4936074;28;20639;-58
2022/09/20 08:50:41;;;;;;;1.40;1.40;;;;;;;;;;4954912;28;20249;-58
2022/09/20 08:53:08;;;;;;;1.50;1.50;;;;;;;;;;4965320;28;20312;-58
2022/09/20 08:55:38;;;;;;;1.50;1.50;;;;;;;;;;4971512;28;20252;-58
2022/09/20 08:58:04;;;;;;;1.50;1.50;;;;;;;;;;4954945;28;20229;-58
2022/09/20 09:00:31;;;;;;;1.50;1.50;;;;;;;;;;4958615;28;20275;-59
2022/09/20 09:02:58;;;;;;;1.20;1.20;;;;;;;;;;4954427;28;20223;-57
2022/09/20 09:05:34;;;;;;;1.00;1.00;;;;;;;;;;4953688;28;20285;-58
2022/09/20 09:08:02;;;;;;;1.10;1.10;;;;;;;;;;4965567;28;20223;-58
2022/09/20 09:10:29;;;;;;;1.10;1.10;;;;;;;;;;4967553;28;20723;-59
2022/09/20 09:12:54;;;;;;;1.00;1.00;;;;;;;;;;4964941;28;20236;-58
2022/09/20 09:15:23;;;;;;;1.10;1.10;;;;;;;;;;4965446;28;20222;-58
2022/09/20 09:17:49;;;;;;;0.90;0.90;;;;;;;;;;4961797;28;20626;-58
2022/09/20 09:20:17;;;;;;;0.90;0.90;;;;;;;;;;4967658;28;20220;-58
2022/09/20 09:22:44;;;;;;;0.90;0.90;;;;;;;;;;4962044;28;20287;-58
2022/09/20 09:25:21;;;;;;;1.10;1.10;;;;;;;;;;4948620;28;20285;-58
2022/09/20 09:27:55;;;;;;;1.50;1.50;;;;;;;;;;4953987;28;20223;-58
2022/09/20 09:30:23;;;;;;;1.13;1.13;;;;;;;;;;4935959;28;21306;-58
2022/09/20 09:32:49;;;;;;;1.00;1.00;;;;;;;;;;4939704;28;20902;-58
2022/09/20 09:35:30;;;;;;;1.00;1.00;;;;;;;;;;4955194;28;20227;-60
2022/09/20 09:38:00;;;;;;;1.00;1.00;;;;;;;;;;4938213;28;20256;-59
2022/09/20 09:40:27;;;;;;;0.95;0.95;;;;;;;;;;4950427;28;20226;-59
2022/09/20 09:42:58;;;;;;;0.90;0.90;;;;;;;;;;4950562;28;20596;-59
2022/09/20 09:45:35;;;;;;;0.90;0.90;;;;;;;;;;4953633;28;20292;-58
2022/09/20 09:48:01;;;;;;;1.10;1.10;;;;;;;;;;4938044;28;20225;-58
2022/09/20 09:50:31;;;;;;;0.90;0.90;;;;;;;;;;4952427;28;20790;-58
2022/09/20 09:53:07;;;;;;;0.90;0.90;;;;;;;;;;4946337;28;20302;-58
2022/09/20 09:55:37;;;;;;;0.90;0.90;;;;;;;;;;4924303;28;20615;-58
2022/09/20 09:58:07;;;;;;;0.90;0.90;;;;;;;;;;4945521;28;20232;-57
2022/09/20 10:00:34;;;;;;;0.80;0.80;;;;;;;;;;4944663;28;20235;-57
2022/09/20 10:03:05;;;;;;;0.95;0.95;;;;;;;;;;4953134;28;20730;-57
2022/09/20 10:05:37;;;;;;;1.00;1.00;;;;;;;;;;4954855;28;20297;-57
2022/09/20 10:08:22;;;;;;;1.00;1.00;;;;;;;;;;4948824;28;20355;-57
2022/09/20 10:11:01;;;;;;;1.13;1.13;;;;;;;;;;4945963;28;20233;-58
2022/09/20 10:13:43;;;;;;;0.98;0.98;;;;;;;;;;4925617;28;20278;-58
2022/09/20 10:16:09;;;;;;;0.90;0.90;;;;;;;;;;4946585;28;20803;-57
2022/09/20 10:18:42;;;;;;;0.90;0.90;;;;;;;;;;4945425;28;20226;-58
2022/09/20 10:21:27;;;;;;;0.85;0.85;;;;;;;;;;4954628;28;20267;-58
2022/09/20 10:24:03;;;;;;;1.00;1.00;;;;;;;;;;4931488;28;20859;-58
2022/09/20 10:26:36;;;;;;;0.90;0.90;;;;;;;;;;4966502;28;20230;-57
2022/09/20 10:29:07;;;;;;;0.90;0.90;;;;;;;;;;4955690;28;20223;-57
2022/09/20 10:31:41;;;;;;;1.00;1.00;;;;;;;;;;4943944;28;20243;-57
2022/09/20 10:34:21;;;;;;;1.02;1.02;;;;;;;;;;4957284;28;20716;-58
2022/09/20 10:36:49;;;;;;;0.90;0.90;;;;;;;;;;4936402;28;20336;-57
2022/09/20 10:39:18;;;;;;;1.03;1.03;;;;;;;;;;4949016;28;20278;-58
2022/09/20 10:44:52;;;;;;;1.00;1.00;;;;;;;;;;4898788;28;20240;-58
2022/09/20 10:47:21;;;;;;;0.90;0.90;;;;;;;;;;4935660;28;20695;-59
2022/09/20 10:49:59;;;;;;;0.90;0.90;;;;;;;;;;4932071;28;20218;-58
2022/09/20 10:52:34;;;;;;;0.90;0.90;;;;;;;;;;4934469;28;20331;-57
2022/09/20 10:55:08;;;;;;;0.90;0.90;;;;;;;;;;4931557;28;20691;-58
2022/09/20 10:57:37;;;;;;;1.00;1.00;;;;;;;;;;4930963;28;20231;-58
2022/09/20 11:00:23;;;;;;;1.10;1.10;;;;;;;;;;4940248;28;20584;-58
2022/09/20 11:03:08;;;;;;;0.90;0.90;;;;;;;;;;4939521;28;20231;-59
2022/09/20 11:05:40;;;;;;;0.80;0.80;;;;;;;;;;4936381;28;20809;-59
2022/09/20 11:08:08;;;;;;;0.90;0.90;;;;;;;;;;4937850;28;20230;-58
2022/09/20 11:10:36;;;;;;;1.00;1.00;;;;;;;;;;4926413;28;20317;-59
2022/09/20 11:13:04;;;;;;;0.80;0.80;;;;;;;;;;4913470;28;20231;-58
2022/09/20 11:15:40;;;;;;;1.03;1.03;;;;;;;;;;4925810;28;20273;-57
2022/09/20 11:18:19;;;;;;;0.80;0.80;;;;;;;;;;4929225;28;20557;-58
2022/09/20 11:20:47;;;;;;;0.90;0.90;;;;;;;;;;4936415;28;20812;-58
2022/09/20 11:23:14;;;;;;;1.00;1.00;;;;;;;;;;4925773;28;20876;-57
2022/09/20 11:25:45;;;;;;;0.90;0.90;;;;;;;;;;4929609;28;20242;-59
2022/09/20 11:28:18;;;;;;;0.90;0.90;;;;;;;;;;4932219;28;20317;-58
2022/09/20 11:30:50;;;;;;;1.00;1.00;;;;;;;;;;4942410;28;20779;-57
2022/09/20 11:33:37;;;;;;;0.80;0.80;;;;;;;;;;4922235;28;20226;-57
2022/09/20 11:36:04;;;;;;;0.80;0.80;;;;;;;;;;4949942;28;20254;-58
2022/09/20 11:38:42;;;;;;;0.87;0.87;;;;;;;;;;4945603;28;20726;-57
2022/09/20 11:41:11;;;;;;;1.00;1.00;;;;;;;;;;4945598;28;20860;-58
2022/09/20 11:43:41;;;;;;;1.10;1.10;;;;;;;;;;4941254;28;20687;-58
2022/09/20 11:46:07;;;;;;;0.87;0.87;;;;;;;;;;4920046;28;20235;-57
2022/09/20 11:48:43;;;;;;;0.90;0.90;;;;;;;;;;4933951;28;20249;-58
2022/09/20 11:51:19;;;;;;;0.90;0.90;;;;;;;;;;4964234;28;20316;-57
2022/09/20 11:53:49;;;;;;;1.00;1.00;;;;;;;;;;4921305;28;20218;-57
2022/09/20 11:56:32;;;;;;;0.90;0.90;;;;;;;;;;4945033;28;20872;-58
2022/09/20 11:58:59;;;;;;;1.10;1.10;;;;;;;;;;4931293;28;20217;-58
2022/09/20 12:01:26;;;;;;;0.90;0.90;;;;;;;;;;4960873;28;20661;-57
2022/09/20 12:03:53;;;;;;;1.10;1.10;;;;;;;;;;4969837;28;20294;-58
2022/09/20 12:06:32;;;;;;;0.90;0.90;;;;;;;;;;4933485;28;20815;-59
2022/09/20 12:08:59;;;;;;;1.00;1.00;;;;;;;;;;4926184;28;20223;-58
2022/09/20 12:11:29;;;;;;;0.90;0.90;;;;;;;;;;4953072;28;20243;-59
2022/09/20 12:13:58;;;;;;;1.40;1.40;;;;;;;;;;4942247;28;20925;-58
2022/09/20 12:16:42;;;;;;;1.30;1.30;;;;;;;;;;4946406;28;20224;-58
2022/09/20 12:19:12;;;;;;;0.80;0.80;;;;;;;;;;4948815;28;20232;-58
2022/09/20 12:21:57;;;;;;;1.40;1.40;;;;;;;;;;4946958;28;20222;-59
2022/09/20 12:24:27;;;;;;;1.50;1.50;;;;;;;;;;4954673;28;20250;-59
2022/09/20 12:26:55;;;;;;;1.50;1.50;;;;;;;;;;4953773;28;20218;-58
2022/09/20 12:29:24;;;;;;;1.70;1.70;;;;;;;;;;4943202;28;20234;-58
2022/09/20 12:31:53;;;;;;;0.80;0.80;;;;;;;;;;4931206;28;20234;-59
2022/09/20 12:34:19;;;;;;;0.85;0.85;;;;;;;;;;4939266;28;20259;-59
2022/09/20 12:36:54;;;;;;;1.00;1.00;;;;;;;;;;4928398;28;20585;-59
2022/09/20 12:39:25;;;;;;;0.90;0.90;;;;;;;;;;4941098;28;20779;-59
2022/09/20 12:42:25;;;;;;;1.10;1.10;;;;;;;;;;4940059;28;21390;-58
2022/09/20 12:44:51;;;;;;;1.00;1.00;;;;;;;;;;4869782;28;20246;-59
2022/09/20 12:47:18;;;;;;;1.00;1.00;;;;;;;;;;4926924;28;20677;-59
2022/09/20 12:55:28;;;;;;;0.98;0.98;;;;;;;;;;4936992;28;20362;-56
2022/09/20 12:57:57;;;;;;;1.00;1.00;;;;;;;;;;4939865;28;20234;-56
2022/09/20 13:00:35;;;;;;;1.00;1.00;;;;;;;;;;4945783;28;20254;-57
2022/09/20 13:03:01;;;;;;;1.10;1.10;;;;;;;;;;4939080;28;20227;-56
2022/09/20 13:05:31;;;;;;;0.97;0.97;;;;;;;;;;4920065;28;20222;-57
2022/09/20 13:07:59;;;;;;;1.20;1.20;;;;;;;;;;4933051;28;20215;-56
2022/09/20 13:10:34;;;;;;;1.10;1.10;;;;;;;;;;4941924;28;20230;-56
2022/09/20 13:13:01;;;;;;;1.00;1.00;;;;;;;;;;4918875;28;20266;-57
2022/09/20 13:15:27;;;;;;;0.90;0.90;;;;;;;;;;4904367;28;20222;-56
2022/09/20 13:17:54;;;;;;;1.00;1.00;;;;;;;;;;4935886;28;20600;-56
2022/09/20 13:20:22;;;;;;;0.90;0.90;;;;;;;;;;4937168;28;20687;-57
2022/09/20 13:22:48;;;;;;;0.90;0.90;;;;;;;;;;4929002;28;20230;-57
2022/09/20 13:25:15;;;;;;;1.00;1.00;;;;;;;;;;4921309;28;20215;-56
2022/09/20 13:27:51;;;;;;;1.00;1.00;;;;;;;;;;4944813;28;20215;-55
2022/09/20 13:30:23;;;;;;;0.93;0.93;;;;;;;;;;4932341;28;20238;-57
2022/09/20 13:32:49;;;;;;;1.00;1.00;;;;;;;;;;4936816;28;21137;-57
2022/09/20 13:35:17;;;;;;;0.90;0.90;;;;;;;;;;4936764;28;20988;-56
2022/09/20 13:38:01;;;;;;;0.90;0.90;;;;;;;;;;4937224;28;20235;-55
2022/09/20 13:40:39;;;;;;;0.90;0.90;;;;;;;;;;4953288;28;20233;-54
2022/09/20 13:43:06;;;;;;;1.00;1.00;;;;;;;;;;4921265;28;20765;-58
2022/09/20 13:45:31;;;;;;;1.00;1.00;;;;;;;;;;4928489;28;20227;-57
2022/09/20 13:47:58;;;;;;;1.00;1.00;;;;;;;;;;4927292;28;20239;-58
2022/09/20 13:50:32;;;;;;;1.10;1.10;;;;;;;;;;4944334;28;20254;-56
2022/09/20 13:52:58;;;;;;;1.00;1.00;;;;;;;;;;4929932;28;20367;-56
2022/09/20 13:55:27;;;;;;;0.97;0.97;;;;;;;;;;4930459;28;20247;-57
2022/09/20 13:57:56;;;;;;;1.00;1.00;;;;;;;;;;4922350;28;20232;-56
2022/09/20 14:00:24;;;;;;;0.80;0.80;;;;;;;;;;4919709;28;20298;-57
2022/09/20 14:02:50;;;;;;;0.90;0.90;;;;;;;;;;4948085;28;20264;-57
2022/09/20 14:05:17;;;;;;;0.80;0.80;;;;;;;;;;4946178;28;20738;-57
2022/09/20 14:07:43;;;;;;;0.87;0.87;;;;;;;;;;4940860;28;20224;-57
2022/09/20 14:10:29;;;;;;;0.80;0.80;;;;;;;;;;4942118;28;20408;-55
2022/09/20 14:12:56;;;;;;;1.00;1.00;;;;;;;;;;4938323;28;21009;-57
2022/09/20 14:15:21;;;;;;;1.00;1.00;;;;;;;;;;4930193;28;20226;-57
2022/09/20 14:17:47;;;;;;;0.90;0.90;;;;;;;;;;4934855;28;20234;-56
2022/09/20 14:20:14;;;;;;;1.05;1.05;;;;;;;;;;4920750;28;20687;-57
2022/09/20 14:22:40;;;;;;;1.07;1.07;;;;;;;;;;4900990;28;20306;-56
2022/09/20 14:25:12;;;;;;;1.00;1.00;;;;;;;;;;4914970;28;20612;-56
2022/09/20 14:27:38;;;;;;;0.90;0.90;;;;;;;;;;4916982;28;20948;-57
2022/09/20 14:30:04;;;;;;;0.80;0.80;;;;;;;;;;4907527;28;20234;-56
2022/09/20 14:32:33;;;;;;;0.80;0.80;;;;;;;;;;4913659;28;20231;-57
2022/09/20 14:35:04;;;;;;;0.80;0.80;;;;;;;;;;4933460;28;20850;-56
2022/09/20 14:37:31;;;;;;;0.80;0.80;;;;;;;;;;4909809;28;20465;-56
2022/09/20 14:39:58;;;;;;;0.90;0.90;;;;;;;;;;4918137;28;20252;-56
2022/09/20 14:42:33;;;;;;;0.80;0.80;;;;;;;;;;4910106;28;26116;-57
2022/09/20 14:44:59;;;;;;;0.80;0.80;;;;;;;;;;4939611;28;20226;-56
2022/09/20 14:47:29;;;;;;;0.90;0.90;;;;;;;;;;4929839;28;20290;-58
2022/09/20 14:49:57;;;;;;;0.80;0.80;;;;;;;;;;4912242;28;20238;-58
2022/09/20 14:52:26;;;;;;;0.90;0.90;;;;;;;;;;4892674;28;20309;-56
2022/09/20 14:55:02;;;;;;;0.80;0.80;;;;;;;;;;4929404;28;20258;-57
2022/09/20 14:57:28;;;;;;;0.90;0.90;;;;;;;;;;4926465;28;20234;-57
2022/09/20 14:59:55;;;;;;;0.90;0.90;;;;;;;;;;4909560;28;20281;-57
2022/09/20 15:02:25;;;;;;;0.90;0.90;;;;;;;;;;4925049;28;20222;-56
2022/09/20 15:04:53;;;;;;;0.90;0.90;;;;;;;;;;4919705;28;20702;-56
2022/09/20 15:07:19;;;;;;;0.93;0.93;;;;;;;;;;4929452;28;20326;-56
2022/09/20 15:09:44;;;;;;;1.00;1.00;;;;;;;;;;4941464;28;20246;-59
2022/09/20 15:12:17;;;;;;;1.00;1.00;;;;;;;;;;4943083;28;20278;-57
2022/09/20 15:14:43;;;;;;;0.80;0.80;;;;;;;;;;4930950;28;20629;-56
2022/09/20 15:17:10;;;;;;;1.00;1.00;;;;;;;;;;4945497;28;20257;-57
2022/09/20 15:19:36;;;;;;;0.90;0.90;;;;;;;;;;4947004;28;20981;-57
2022/09/20 15:22:03;;;;;;;0.90;0.90;;;;;;;;;;4924060;28;20679;-56
2022/09/20 15:24:29;;;;;;;0.90;0.90;;;;;;;;;;4932809;28;20223;-57
2022/09/20 15:26:55;;;;;;;1.00;1.00;;;;;;;;;;4950392;28;20250;-56
2022/09/20 15:29:21;;;;;;;0.90;0.90;;;;;;;;;;4955906;28;20684;-57